Terminal Aerodrome Forecast
Issued by NWS Wilmington, OH

Current Version | Previous Version | Graphics & Text | Print | Product List | Glossary On
Versions: 1 2 3 4 5 6 7 8 9 10 11 12 13 14 15 16 17
466
FTUS41 KILN 062340
TAFDAY
TAF
KDAY 062340Z 0700/0724 29012G18KT 6SM BR OVC008
      TEMPO 0701/0705 OVC013
     FM070500 28011KT P6SM BKN250
     FM071200 25009KT P6SM BKN250
     FM072300 23008KT P6SM BKN120=

USA.gov is the U.S. government's official web portal to all federal, state and local government web resources and services.